<?xml version="1.0" encoding="UTF-8"?>
<gpx xmlns="http://www.topografix.com/GPX/1/1" creator="GPSies http://www.gpsies.com - Mas-mas" version="1.1" xmlns:xsi="http://www.w3.org/2001/XMLSchema-instance" xsi:schemaLocation="http://www.topografix.com/GPX/1/1 http://www.topografix.com/GPX/1/1/gpx.xsd">
  <metadata>
    <name>Mas-mas</name>
    <copyright author="GPSies.com" />
    <link href="http://www.gpsies.com/">
      <text>Mas-mas on GPSies.com</text>
    </link>
    <time>2008-03-08T21:01:22Z</time>
  </metadata>
  <trk>
    <name>Mas-mas on GPSies.com</name>
    <trkseg>
      <trkpt lat="12.98214500" lon="15.72302833">
        <ele>301.70000</ele>
        <time>2008-03-08T21:01:22Z</time>
      </trkpt>
      <trkpt lat="12.96741000" lon="15.71147333">
        <ele>283.70000</ele>
        <time>2008-03-08T21:13:44Z</time>
      </trkpt>
      <trkpt lat="12.95232666" lon="15.70059166">
        <ele>295.60000</ele>
        <time>2008-03-08T21:26:02Z</time>
      </trkpt>
      <trkpt lat="12.95046166" lon="15.69979166">
        <ele>295.30000</ele>
        <time>2008-03-08T21:27:23Z</time>
      </trkpt>
      <trkpt lat="12.93203000" lon="15.69433833">
        <ele>298.90000</ele>
        <time>2008-03-08T21:40:11Z</time>
      </trkpt>
      <trkpt lat="12.91445333" lon="15.68952833">
        <ele>297.50000</ele>
        <time>2008-03-08T21:52:19Z</time>
      </trkpt>
      <trkpt lat="12.89643500" lon="15.68458333">
        <ele>298.50000</ele>
        <time>2008-03-08T22:04:46Z</time>
      </trkpt>
      <trkpt lat="12.87956500" lon="15.67502000">
        <ele>295.40000</ele>
        <time>2008-03-08T22:17:38Z</time>
      </trkpt>
      <trkpt lat="12.86368500" lon="15.66439000">
        <ele>297.50000</ele>
        <time>2008-03-08T22:30:17Z</time>
      </trkpt>
      <trkpt lat="12.84723000" lon="15.65514333">
        <ele>301.90000</ele>
        <time>2008-03-08T22:42:48Z</time>
      </trkpt>
      <trkpt lat="12.83036833" lon="15.64403333">
        <ele>297.00000</ele>
        <time>2008-03-08T22:56:10Z</time>
      </trkpt>
      <trkpt lat="12.81372000" lon="15.63615500">
        <ele>300.90000</ele>
        <time>2008-03-08T23:08:24Z</time>
      </trkpt>
      <trkpt lat="12.79679000" lon="15.62811000">
        <ele>301.60000</ele>
        <time>2008-03-08T23:20:51Z</time>
      </trkpt>
      <trkpt lat="12.77890500" lon="15.61961666">
        <ele>299.90000</ele>
        <time>2008-03-08T23:34:00Z</time>
      </trkpt>
      <trkpt lat="12.76121000" lon="15.61122333">
        <ele>301.30000</ele>
        <time>2008-03-08T23:47:00Z</time>
      </trkpt>
      <trkpt lat="12.74501500" lon="15.60241500">
        <ele>299.30000</ele>
        <time>2008-03-08T23:59:14Z</time>
      </trkpt>
      <trkpt lat="12.74434666" lon="15.60193333">
        <ele>299.90000</ele>
        <time>2008-03-08T23:59:47Z</time>
      </trkpt>
      <trkpt lat="12.73010000" lon="15.58903666">
        <ele>298.10000</ele>
        <time>2008-03-09T00:12:28Z</time>
      </trkpt>
      <trkpt lat="12.71520166" lon="15.57797833">
        <ele>298.70000</ele>
        <time>2008-03-09T00:24:44Z</time>
      </trkpt>
      <trkpt lat="12.70035166" lon="15.56695500">
        <ele>299.30000</ele>
        <time>2008-03-09T00:36:58Z</time>
      </trkpt>
      <trkpt lat="12.68446666" lon="15.55612166">
        <ele>297.80000</ele>
        <time>2008-03-09T00:49:42Z</time>
      </trkpt>
      <trkpt lat="12.66776666" lon="15.54614000">
        <ele>294.90000</ele>
        <time>2008-03-09T01:02:35Z</time>
      </trkpt>
      <trkpt lat="12.65150500" lon="15.53638833">
        <ele>293.80000</ele>
        <time>2008-03-09T01:15:10Z</time>
      </trkpt>
      <trkpt lat="12.63566333" lon="15.52689333">
        <ele>299.70000</ele>
        <time>2008-03-09T01:27:24Z</time>
      </trkpt>
      <trkpt lat="12.61991333" lon="15.51747166">
        <ele>295.60000</ele>
        <time>2008-03-09T01:39:34Z</time>
      </trkpt>
      <trkpt lat="12.60266500" lon="15.50715333">
        <ele>296.30000</ele>
        <time>2008-03-09T01:52:54Z</time>
      </trkpt>
      <trkpt lat="12.58681166" lon="15.49767833">
        <ele>300.90000</ele>
        <time>2008-03-09T02:05:08Z</time>
      </trkpt>
      <trkpt lat="12.57036333" lon="15.48784666">
        <ele>301.00000</ele>
        <time>2008-03-09T02:17:51Z</time>
      </trkpt>
      <trkpt lat="12.55289000" lon="15.47742500">
        <ele>303.70000</ele>
        <time>2008-03-09T02:31:20Z</time>
      </trkpt>
      <trkpt lat="12.53539000" lon="15.46696500">
        <ele>310.30000</ele>
        <time>2008-03-09T02:44:51Z</time>
      </trkpt>
      <trkpt lat="12.51851833" lon="15.45682666">
        <ele>300.40000</ele>
        <time>2008-03-09T02:57:54Z</time>
      </trkpt>
      <trkpt lat="12.50960000" lon="15.45157000">
        <ele>300.80000</ele>
        <time>2008-03-09T03:04:46Z</time>
      </trkpt>
      <trkpt lat="12.49216166" lon="15.44427166">
        <ele>293.80000</ele>
        <time>2008-03-09T03:17:20Z</time>
      </trkpt>
    </trkseg>
  </trk>
</gpx>

